createdAt,value
2022-08-19T00:04:58.988Z,6.93
2022-08-19T00:10:00.786Z,6.40
2022-08-19T00:15:26.639Z,6.80
2022-08-19T00:20:28.546Z,6.70
2022-08-19T00:25:30.849Z,6.63
2022-08-19T00:30:32.693Z,6.60
2022-08-19T00:35:41.055Z,6.67
2022-08-19T00:40:56.709Z,7.37
2022-08-19T00:45:59.366Z,6.73
2022-08-19T00:51:02.243Z,6.80
2022-08-19T00:56:07.272Z,7.57
2022-08-19T01:01:09.419Z,6.93
2022-08-19T01:06:14.120Z,6.67
2022-08-19T01:11:22.116Z,8.27
2022-08-19T01:16:25.401Z,7.10
2022-08-19T01:21:28.489Z,7.57
2022-08-19T01:26:31.329Z,7.90
2022-08-19T01:31:33.529Z,7.63
2022-08-19T01:36:46.416Z,7.17
2022-08-19T01:41:48.944Z,7.77
2022-08-19T01:46:51.759Z,8.07
2022-08-19T01:51:54.799Z,7.77
2022-08-19T01:57:04.149Z,7.43
2022-08-19T02:02:09.817Z,8.50
2022-08-19T02:07:11.595Z,8.37
2022-08-19T02:12:13.518Z,9.97
2022-08-19T02:17:15.363Z,10.60
2022-08-19T02:22:17.076Z,10.27
2022-08-19T02:27:18.758Z,11.70
2022-08-19T02:32:20.896Z,10.13
2022-08-19T02:37:41.445Z,9.03
2022-08-19T02:42:52.579Z,9.70
2022-08-19T02:47:57.880Z,11.30
2022-08-19T02:53:14.814Z,10.17
2022-08-19T02:58:27.331Z,11.03
2022-08-19T03:03:39.256Z,10.23
2022-08-19T03:08:55.027Z,11.00
2022-08-19T03:14:12.396Z,11.10
2022-08-19T03:19:22.020Z,10.53
2022-08-19T03:24:33.620Z,11.40
2022-08-19T03:29:43.233Z,11.50
2022-08-19T03:34:59.177Z,10.23
2022-08-19T03:40:02.490Z,11.37
2022-08-19T03:45:17.265Z,11.33
2022-08-19T03:50:32.170Z,10.97
2022-08-19T03:55:33.986Z,11.33
2022-08-19T04:00:48.040Z,12.20
2022-08-19T04:05:51.957Z,11.87
2022-08-19T04:10:54.396Z,13.63
2022-08-19T04:16:06.547Z,11.90
2022-08-19T04:21:22.961Z,11.87
2022-08-19T04:26:27.098Z,12.47
2022-08-19T04:31:31.706Z,12.50
2022-08-19T04:36:39.270Z,11.80
2022-08-19T04:42:00.904Z,12.80
2022-08-19T04:47:11.264Z,13.47
2022-08-19T04:52:13.238Z,13.83
2022-08-19T04:57:15.040Z,12.20
2022-08-19T05:02:17.055Z,14.03
2022-08-19T05:07:20.997Z,14.20
2022-08-19T05:12:26.761Z,13.27
2022-08-19T05:17:37.495Z,14.87
2022-08-19T05:22:40.423Z,15.23
2022-08-19T05:27:43.172Z,15.23
2022-08-19T05:32:45.224Z,15.10
2022-08-19T05:37:46.986Z,13.43
2022-08-19T05:43:16.712Z,13.10
2022-08-19T05:48:21.365Z,15.17
2022-08-19T05:53:23.111Z,20.47
2022-08-19T05:58:26.900Z,18.20
2022-08-19T06:03:29.947Z,18.47
2022-08-19T06:08:34.243Z,17.93
2022-08-19T06:13:36.864Z,22.13
2022-08-19T06:18:38.665Z,17.30
2022-08-19T06:23:40.504Z,16.83
2022-08-19T06:28:45.982Z,18.53
2022-08-19T06:33:48.885Z,15.80
2022-08-19T06:38:52.126Z,15.60
2022-08-19T06:43:55.725Z,16.27
2022-08-19T06:48:58.806Z,15.90
2022-08-19T06:54:00.768Z,15.50
2022-08-19T06:59:09.165Z,14.80
2022-08-19T07:04:12.156Z,15.37
2022-08-19T07:09:18.322Z,14.40
2022-08-19T07:14:26.236Z,15.60
2022-08-19T07:19:28.406Z,12.47
2022-08-19T07:24:33.534Z,12.90
2022-08-19T07:29:36.555Z,11.47
2022-08-19T07:34:40.105Z,11.37
2022-08-19T07:39:41.956Z,12.73
2022-08-19T07:44:50.216Z,11.87
2022-08-19T07:49:52.712Z,11.73
2022-08-19T07:54:54.447Z,11.37
2022-08-19T07:59:57.139Z,10.23
2022-08-19T08:05:17.425Z,8.67
2022-08-19T08:10:21.217Z,7.60
2022-08-19T08:15:23.452Z,5.73
2022-08-19T08:20:26.912Z,6.10
2022-08-19T08:25:28.783Z,6.40
2022-08-19T08:30:36.803Z,6.50
2022-08-19T08:35:39.864Z,6.03
2022-08-19T08:41:04.574Z,8.57
2022-08-19T08:46:30.366Z,6.70
2022-08-19T08:56:45.210Z,7.43
2022-08-19T09:01:47.010Z,6.60
2022-08-19T09:06:58.932Z,6.33
2022-08-19T09:12:26.918Z,6.53
2022-08-19T09:17:32.053Z,5.60
2022-08-19T09:22:34.179Z,5.17
2022-08-19T09:27:42.384Z,5.93
2022-08-19T09:32:46.194Z,5.03
2022-08-19T09:37:48.103Z,4.67
2022-08-19T09:42:52.558Z,5.27
2022-08-19T09:47:55.603Z,4.50
2022-08-19T09:52:57.991Z,5.73
2022-08-19T09:58:01.695Z,7.57
2022-08-19T10:03:03.477Z,4.17
2022-08-19T10:08:05.291Z,5.50
2022-08-19T10:13:18.663Z,4.80
2022-08-19T10:18:21.912Z,4.77
2022-08-19T10:23:23.640Z,5.70
2022-08-19T10:28:25.352Z,6.33
2022-08-19T10:33:53.517Z,5.53
2022-08-19T10:38:56.708Z,6.57
2022-08-19T10:44:04.211Z,4.93
2022-08-19T10:49:06.663Z,5.33
2022-08-19T10:54:12.597Z,6.00
2022-08-19T10:59:15.214Z,4.70
2022-08-19T11:04:18.583Z,4.60
2022-08-19T11:09:30.528Z,4.30
2022-08-19T11:14:35.570Z,3.90
2022-08-19T11:19:37.327Z,4.23
2022-08-19T11:24:39.259Z,2.80
2022-08-19T11:29:41.282Z,3.30
2022-08-19T11:34:43.271Z,3.43
2022-08-19T11:39:45.172Z,3.15
2022-08-19T11:44:53.560Z,3.23
2022-08-19T11:49:55.352Z,3.30
2022-08-19T11:54:57.082Z,4.07
2022-08-19T11:59:58.953Z,3.42
2022-08-19T12:05:03.834Z,4.20
2022-08-19T12:10:05.750Z,3.43
2022-08-19T12:15:08.233Z,4.90
2022-08-19T12:20:11.790Z,4.00
2022-08-19T12:25:13.550Z,3.70
2022-08-19T12:30:15.488Z,3.73
2022-08-19T12:35:17.320Z,3.73
2022-08-19T12:40:20.152Z,3.37
2022-08-19T12:45:22.722Z,3.40
2022-08-19T12:50:24.621Z,3.42
2022-08-19T12:55:26.387Z,3.33
2022-08-19T13:00:28.833Z,3.97
2022-08-19T13:05:34.272Z,4.03
2022-08-19T13:10:37.281Z,3.17
2022-08-19T13:15:41.139Z,3.73
2022-08-19T13:20:43.583Z,4.00
2022-08-19T13:26:02.499Z,3.22
2022-08-19T13:31:22.932Z,3.40
2022-08-19T13:36:24.916Z,4.20
2022-08-19T13:41:27.813Z,3.50
2022-08-19T13:46:30.559Z,4.10
2022-08-19T13:51:32.272Z,3.67
2022-08-19T13:56:33.974Z,4.13
2022-08-19T14:01:37.514Z,3.40
2022-08-19T14:06:39.314Z,4.63
2022-08-19T14:11:41.064Z,3.40
2022-08-19T14:16:43.833Z,4.17
2022-08-19T14:21:45.519Z,3.37
2022-08-19T14:26:47.410Z,3.57
2022-08-19T14:31:49.378Z,4.60
2022-08-19T14:36:51.345Z,3.83
2022-08-19T14:41:53.955Z,5.27
2022-08-19T14:46:55.695Z,6.43
2022-08-19T14:51:57.574Z,5.77
2022-08-19T14:56:59.580Z,5.63
2022-08-19T15:02:33.597Z,18.10
2022-08-19T15:07:23.265Z,4.60
2022-08-19T15:12:30.009Z,4.37
2022-08-19T15:17:43.739Z,4.75
2022-08-19T15:22:48.115Z,5.97
2022-08-19T15:27:52.970Z,4.75
2022-08-19T15:32:56.051Z,5.75
2022-08-19T15:37:58.961Z,5.03
2022-08-19T15:43:00.788Z,3.97
2022-08-19T15:48:04.215Z,4.88
2022-08-19T15:53:09.236Z,4.33
2022-08-19T15:58:32.213Z,4.10
2022-08-19T16:03:52.672Z,4.37
2022-08-19T16:09:02.061Z,4.77
2022-08-19T16:14:04.051Z,3.97
2022-08-19T16:19:11.886Z,4.97
2022-08-19T16:24:16.562Z,4.33
2022-08-19T16:29:30.253Z,4.93
2022-08-19T16:34:38.102Z,3.97
2022-08-19T16:39:40.443Z,5.27
2022-08-19T16:44:46.008Z,5.30
2022-08-19T16:49:53.620Z,5.73
2022-08-19T16:54:57.009Z,5.17
2022-08-19T16:59:58.784Z,5.83
2022-08-19T17:05:00.849Z,5.73
2022-08-19T17:10:04.488Z,5.20
2022-08-19T17:15:08.327Z,5.63
2022-08-19T17:20:10.435Z,5.50
2022-08-19T17:25:12.185Z,5.53
2022-08-19T17:30:13.988Z,5.13
2022-08-19T17:35:24.231Z,6.00
2022-08-19T17:40:26.819Z,5.13
2022-08-19T17:45:32.047Z,6.00
2022-08-19T17:50:35.469Z,5.90
2022-08-19T17:55:37.235Z,6.53
2022-08-19T18:00:39.395Z,7.03
2022-08-19T18:05:56.514Z,5.40
2022-08-19T18:10:59.107Z,8.57
2022-08-19T18:16:01.332Z,5.57
2022-08-19T18:21:03.446Z,6.13
2022-08-19T18:26:05.729Z,10.27
2022-08-19T18:31:07.902Z,6.97
2022-08-19T18:36:09.789Z,7.90
2022-08-19T18:41:29.873Z,5.47
2022-08-19T18:46:51.512Z,5.57
2022-08-19T18:51:54.077Z,5.10
2022-08-19T18:56:55.879Z,6.33
2022-08-19T19:01:58.953Z,6.20
2022-08-19T19:07:00.758Z,5.30
2022-08-19T19:12:04.372Z,5.60
2022-08-19T19:17:11.258Z,5.70
2022-08-19T19:22:17.522Z,5.73
2022-08-19T19:27:20.587Z,6.67
2022-08-19T19:32:28.372Z,6.20
2022-08-19T19:37:30.100Z,6.97
2022-08-19T19:42:31.786Z,6.87
2022-08-19T19:47:33.486Z,13.40
2022-08-19T19:52:35.197Z,9.33
2022-08-19T19:57:39.971Z,10.87
2022-08-19T20:02:46.638Z,7.70
2022-08-19T20:08:11.599Z,8.40
2022-08-19T20:13:15.513Z,10.53
2022-08-19T20:18:17.306Z,10.10
2022-08-19T20:23:21.693Z,10.90
2022-08-19T20:28:23.554Z,46.83
2022-08-19T20:33:27.549Z,13.43
2022-08-19T20:38:29.301Z,10.53
2022-08-19T20:43:31.234Z,10.40
2022-08-19T20:48:33.164Z,21.03
2022-08-19T20:53:34.998Z,19.73
2022-08-19T20:58:38.010Z,13.10
2022-08-19T21:03:44.119Z,11.63
2022-08-19T21:08:46.092Z,12.60
2022-08-19T21:13:50.849Z,13.67
2022-08-19T21:18:52.604Z,13.07
2022-08-19T21:23:54.380Z,13.60
2022-08-19T21:28:56.130Z,12.73
2022-08-19T21:33:57.894Z,13.43
2022-08-19T21:38:59.751Z,14.17
2022-08-19T21:44:01.696Z,17.53
2022-08-19T21:49:05.276Z,14.37
2022-08-19T21:54:07.017Z,15.03
2022-08-19T21:59:16.830Z,13.73
2022-08-19T22:04:20.154Z,13.10
2022-08-19T22:09:21.927Z,13.03
2022-08-19T22:14:23.669Z,14.67
2022-08-19T22:19:25.387Z,13.90
2022-08-19T22:24:27.352Z,14.70
2022-08-19T22:29:33.867Z,14.80
2022-08-19T22:34:36.177Z,13.27
2022-08-19T22:39:38.032Z,14.60
2022-08-19T22:44:39.942Z,16.53
2022-08-19T22:49:41.680Z,14.63
2022-08-19T22:54:45.827Z,14.90
2022-08-19T22:59:49.516Z,15.27
2022-08-19T23:04:51.806Z,15.37
2022-08-19T23:09:53.576Z,13.97
2022-08-19T23:14:55.445Z,14.70
2022-08-19T23:19:57.283Z,15.10
2022-08-19T23:25:09.422Z,14.17
2022-08-19T23:30:26.687Z,14.27
2022-08-19T23:35:33.588Z,15.43
2022-08-19T23:40:37.085Z,16.50
2022-08-19T23:45:40.354Z,16.43
2022-08-19T23:50:44.743Z,16.13
2022-08-19T23:55:48.034Z,15.40
